sensor_id;sensor_type;location;lat;lon;timestamp;P1;durP1;ratioP1;P2;durP2;ratioP2
52322;SDS011;38263;52.920;6.238;2023-03-01T00:02:22;16.25;;;11.77;;
52322;SDS011;38263;52.920;6.238;2023-03-01T00:04:48;17.73;;;12.02;;
52322;SDS011;38263;52.920;6.238;2023-03-01T00:07:14;17.75;;;12.18;;
52322;SDS011;38263;52.920;6.238;2023-03-01T00:09:40;17.35;;;11.07;;
52322;SDS011;38263;52.920;6.238;2023-03-01T00:12:06;15.15;;;11.10;;
52322;SDS011;38263;52.920;6.238;2023-03-01T00:14:32;18.75;;;11.32;;
52322;SDS011;38263;52.920;6.238;2023-03-01T00:16:58;16.58;;;11.10;;
52322;SDS011;38263;52.920;6.238;2023-03-01T00:19:24;15.45;;;10.80;;
52322;SDS011;38263;52.920;6.238;2023-03-01T00:21:50;16.85;;;11.55;;
52322;SDS011;38263;52.920;6.238;2023-03-01T00:24:16;18.23;;;12.07;;
52322;SDS011;38263;52.920;6.238;2023-03-01T00:26:42;19.45;;;13.52;;
52322;SDS011;38263;52.920;6.238;2023-03-01T00:29:08;20.77;;;13.45;;
52322;SDS011;38263;52.920;6.238;2023-03-01T00:31:34;18.25;;;14.15;;
52322;SDS011;38263;52.920;6.238;2023-03-01T00:34:01;21.85;;;14.73;;
52322;SDS011;38263;52.920;6.238;2023-03-01T00:36:29;24.27;;;15.20;;
52322;SDS011;38263;52.920;6.238;2023-03-01T00:38:55;18.48;;;11.75;;
52322;SDS011;38263;52.920;6.238;2023-03-01T00:41:22;17.63;;;12.35;;
52322;SDS011;38263;52.920;6.238;2023-03-01T00:43:48;20.60;;;12.70;;
52322;SDS011;38263;52.920;6.238;2023-03-01T00:46:15;13.02;;;9.00;;
52322;SDS011;38263;52.920;6.238;2023-03-01T00:48:42;11.57;;;7.70;;
52322;SDS011;38263;52.920;6.238;2023-03-01T00:51:10;8.45;;;6.60;;
52322;SDS011;38263;52.920;6.238;2023-03-01T00:53:36;13.80;;;9.32;;
52322;SDS011;38263;52.920;6.238;2023-03-01T00:56:03;12.90;;;8.52;;
52322;SDS011;38263;52.920;6.238;2023-03-01T00:58:29;13.20;;;9.35;;
52322;SDS011;38263;52.920;6.238;2023-03-01T01:00:55;12.18;;;8.27;;
52322;SDS011;38263;52.920;6.238;2023-03-01T01:03:21;19.05;;;9.70;;
52322;SDS011;38263;52.920;6.238;2023-03-01T01:05:49;15.93;;;11.02;;
52322;SDS011;38263;52.920;6.238;2023-03-01T01:08:15;17.30;;;10.65;;
52322;SDS011;38263;52.920;6.238;2023-03-01T01:10:43;23.60;;;12.60;;
52322;SDS011;38263;52.920;6.238;2023-03-01T01:13:09;20.92;;;14.05;;
52322;SDS011;38263;52.920;6.238;2023-03-01T01:15:35;21.33;;;15.45;;
52322;SDS011;38263;52.920;6.238;2023-03-01T01:18:01;23.77;;;15.10;;
52322;SDS011;38263;52.920;6.238;2023-03-01T01:20:27;24.35;;;15.13;;
52322;SDS011;38263;52.920;6.238;2023-03-01T01:22:53;28.38;;;16.20;;
52322;SDS011;38263;52.920;6.238;2023-03-01T01:25:19;26.05;;;15.57;;
52322;SDS011;38263;52.920;6.238;2023-03-01T01:27:45;24.25;;;14.95;;
52322;SDS011;38263;52.920;6.238;2023-03-01T01:30:11;39.13;;;17.08;;
52322;SDS011;38263;52.920;6.238;2023-03-01T01:32:38;137.82;;;23.67;;
52322;SDS011;38263;52.920;6.238;2023-03-01T01:35:04;157.13;;;24.00;;
52322;SDS011;38263;52.920;6.238;2023-03-01T01:37:30;118.57;;;21.45;;
52322;SDS011;38263;52.920;6.238;2023-03-01T01:39:58;33.92;;;15.63;;
52322;SDS011;38263;52.920;6.238;2023-03-01T01:42:24;147.32;;;21.48;;
52322;SDS011;38263;52.920;6.238;2023-03-01T01:47:35;50.67;;;17.93;;
52322;SDS011;38263;52.920;6.238;2023-03-01T01:50:01;35.80;;;17.77;;
52322;SDS011;38263;52.920;6.238;2023-03-01T01:52:29;39.33;;;17.65;;
52322;SDS011;38263;52.920;6.238;2023-03-01T01:57:26;35.90;;;19.90;;
52322;SDS011;38263;52.920;6.238;2023-03-01T01:59:54;34.53;;;18.52;;
52322;SDS011;38263;52.920;6.238;2023-03-01T02:02:22;33.13;;;18.45;;
52322;SDS011;38263;52.920;6.238;2023-03-01T02:04:48;28.85;;;18.58;;
52322;SDS011;38263;52.920;6.238;2023-03-01T02:07:16;26.55;;;17.00;;
52322;SDS011;38263;52.920;6.238;2023-03-01T02:09:47;30.23;;;18.77;;
52322;SDS011;38263;52.920;6.238;2023-03-01T02:12:14;31.02;;;17.55;;
52322;SDS011;38263;52.920;6.238;2023-03-01T02:14:42;31.63;;;18.77;;
52322;SDS011;38263;52.920;6.238;2023-03-01T02:17:08;49.20;;;18.10;;
52322;SDS011;38263;52.920;6.238;2023-03-01T02:19:43;33.42;;;17.42;;
52322;SDS011;38263;52.920;6.238;2023-03-01T02:22:18;31.27;;;17.67;;
52322;SDS011;38263;52.920;6.238;2023-03-01T02:24:55;60.30;;;18.88;;
52322;SDS011;38263;52.920;6.238;2023-03-01T02:27:24;229.52;;;25.48;;
52322;SDS011;38263;52.920;6.238;2023-03-01T02:29:51;223.57;;;24.38;;
52322;SDS011;38263;52.920;6.238;2023-03-01T02:32:17;97.72;;;20.38;;
52322;SDS011;38263;52.920;6.238;2023-03-01T02:34:50;48.70;;;19.10;;
52322;SDS011;38263;52.920;6.238;2023-03-01T02:37:16;57.25;;;20.73;;
52322;SDS011;38263;52.920;6.238;2023-03-01T02:39:49;135.93;;;22.90;;
52322;SDS011;38263;52.920;6.238;2023-03-01T02:42:19;183.40;;;22.92;;
52322;SDS011;38263;52.920;6.238;2023-03-01T02:44:48;280.42;;;30.25;;
52322;SDS011;38263;52.920;6.238;2023-03-01T02:47:14;111.03;;;20.58;;
52322;SDS011;38263;52.920;6.238;2023-03-01T02:49:40;240.23;;;26.55;;
52322;SDS011;38263;52.920;6.238;2023-03-01T02:55:01;275.63;;;21.10;;
52322;SDS011;38263;52.920;6.238;2023-03-01T02:57:28;246.85;;;20.10;;
52322;SDS011;38263;52.920;6.238;2023-03-01T02:59:56;220.43;;;18.98;;
52322;SDS011;38263;52.920;6.238;2023-03-01T03:02:27;189.60;;;19.15;;
52322;SDS011;38263;52.920;6.238;2023-03-01T03:05:05;131.70;;;16.48;;
52322;SDS011;38263;52.920;6.238;2023-03-01T03:07:33;104.40;;;16.25;;
52322;SDS011;38263;52.920;6.238;2023-03-01T03:09:59;76.63;;;15.70;;
52322;SDS011;38263;52.920;6.238;2023-03-01T03:12:25;53.92;;;14.27;;
52322;SDS011;38263;52.920;6.238;2023-03-01T03:14:51;20.05;;;13.50;;
52322;SDS011;38263;52.920;6.238;2023-03-01T03:17:17;18.50;;;12.43;;
52322;SDS011;38263;52.920;6.238;2023-03-01T03:19:43;21.95;;;12.65;;
52322;SDS011;38263;52.920;6.238;2023-03-01T03:22:10;20.15;;;12.55;;
52322;SDS011;38263;52.920;6.238;2023-03-01T03:24:36;28.65;;;13.48;;
52322;SDS011;38263;52.920;6.238;2023-03-01T03:27:06;20.17;;;13.05;;
52322;SDS011;38263;52.920;6.238;2023-03-01T03:29:32;20.38;;;12.60;;
52322;SDS011;38263;52.920;6.238;2023-03-01T03:31:58;17.38;;;11.65;;
52322;SDS011;38263;52.920;6.238;2023-03-01T03:34:24;24.15;;;12.93;;
52322;SDS011;38263;52.920;6.238;2023-03-01T03:36:54;71.43;;;15.60;;
52322;SDS011;38263;52.920;6.238;2023-03-01T03:39:25;49.42;;;13.75;;
52322;SDS011;38263;52.920;6.238;2023-03-01T03:41:52;49.05;;;13.32;;
52322;SDS011;38263;52.920;6.238;2023-03-01T03:44:18;29.25;;;12.35;;
52322;SDS011;38263;52.920;6.238;2023-03-01T03:46:44;16.42;;;11.73;;
52322;SDS011;38263;52.920;6.238;2023-03-01T03:49:10;18.10;;;11.50;;
52322;SDS011;38263;52.920;6.238;2023-03-01T03:51:36;75.38;;;14.10;;
52322;SDS011;38263;52.920;6.238;2023-03-01T03:54:02;57.80;;;13.95;;
52322;SDS011;38263;52.920;6.238;2023-03-01T03:56:28;25.17;;;13.38;;
52322;SDS011;38263;52.920;6.238;2023-03-01T03:58:54;19.90;;;13.35;;
52322;SDS011;38263;52.920;6.238;2023-03-01T04:01:20;42.30;;;13.25;;
52322;SDS011;38263;52.920;6.238;2023-03-01T04:03:46;35.60;;;13.30;;
52322;SDS011;38263;52.920;6.238;2023-03-01T04:06:12;25.60;;;13.27;;
52322;SDS011;38263;52.920;6.238;2023-03-01T04:08:39;36.40;;;14.40;;
52322;SDS011;38263;52.920;6.238;2023-03-01T04:11:05;27.25;;;13.80;;
52322;SDS011;38263;52.920;6.238;2023-03-01T04:13:50;24.98;;;13.18;;
52322;SDS011;38263;52.920;6.238;2023-03-01T04:16:16;35.90;;;13.23;;
52322;SDS011;38263;52.920;6.238;2023-03-01T04:18:43;36.08;;;12.70;;
52322;SDS011;38263;52.920;6.238;2023-03-01T04:21:09;29.77;;;12.50;;
52322;SDS011;38263;52.920;6.238;2023-03-01T04:23:36;50.35;;;13.95;;
52322;SDS011;38263;52.920;6.238;2023-03-01T04:26:02;31.10;;;12.75;;
52322;SDS011;38263;52.920;6.238;2023-03-01T04:28:33;29.48;;;11.98;;
52322;SDS011;38263;52.920;6.238;2023-03-01T04:31:02;24.73;;;13.23;;
52322;SDS011;38263;52.920;6.238;2023-03-01T04:33:37;19.17;;;12.95;;
52322;SDS011;38263;52.920;6.238;2023-03-01T04:36:04;27.35;;;14.25;;
52322;SDS011;38263;52.920;6.238;2023-03-01T04:38:33;22.92;;;12.73;;
52322;SDS011;38263;52.920;6.238;2023-03-01T04:41:00;19.70;;;12.55;;
52322;SDS011;38263;52.920;6.238;2023-03-01T04:43:26;17.73;;;12.32;;
52322;SDS011;38263;52.920;6.238;2023-03-01T04:45:51;18.67;;;12.55;;
52322;SDS011;38263;52.920;6.238;2023-03-01T04:48:17;19.00;;;12.93;;
52322;SDS011;38263;52.920;6.238;2023-03-01T04:50:43;19.40;;;12.30;;
52322;SDS011;38263;52.920;6.238;2023-03-01T04:53:09;19.05;;;12.40;;
52322;SDS011;38263;52.920;6.238;2023-03-01T04:55:35;22.52;;;13.93;;
52322;SDS011;38263;52.920;6.238;2023-03-01T04:58:01;20.38;;;13.05;;
52322;SDS011;38263;52.920;6.238;2023-03-01T05:00:27;19.27;;;12.75;;
52322;SDS011;38263;52.920;6.238;2023-03-01T05:02:55;19.65;;;13.15;;
52322;SDS011;38263;52.920;6.238;2023-03-01T05:07:55;14.15;;;9.55;;
52322;SDS011;38263;52.920;6.238;2023-03-01T05:10:21;26.02;;;15.30;;
52322;SDS011;38263;52.920;6.238;2023-03-01T05:12:47;20.15;;;13.88;;
52322;SDS011;38263;52.920;6.238;2023-03-01T05:15:13;21.05;;;13.57;;
52322;SDS011;38263;52.920;6.238;2023-03-01T05:17:39;17.08;;;11.27;;
52322;SDS011;38263;52.920;6.238;2023-03-01T05:20:06;20.60;;;13.25;;
52322;SDS011;38263;52.920;6.238;2023-03-01T05:22:35;17.85;;;11.95;;
52322;SDS011;38263;52.920;6.238;2023-03-01T05:25:02;18.65;;;12.32;;
52322;SDS011;38263;52.920;6.238;2023-03-01T05:27:28;20.98;;;13.02;;
52322;SDS011;38263;52.920;6.238;2023-03-01T05:29:55;18.80;;;12.02;;
52322;SDS011;38263;52.920;6.238;2023-03-01T05:32:21;20.60;;;12.40;;
52322;SDS011;38263;52.920;6.238;2023-03-01T05:34:47;17.13;;;11.60;;
52322;SDS011;38263;52.920;6.238;2023-03-01T05:37:13;18.45;;;12.13;;
52322;SDS011;38263;52.920;6.238;2023-03-01T05:39:39;19.83;;;12.68;;
52322;SDS011;38263;52.920;6.238;2023-03-01T05:42:09;19.23;;;13.13;;
52322;SDS011;38263;52.920;6.238;2023-03-01T05:44:35;18.35;;;12.63;;
52322;SDS011;38263;52.920;6.238;2023-03-01T05:47:01;19.70;;;12.98;;
52322;SDS011;38263;52.920;6.238;2023-03-01T05:49:27;20.13;;;13.13;;
52322;SDS011;38263;52.920;6.238;2023-03-01T05:51:53;21.65;;;13.63;;
52322;SDS011;38263;52.920;6.238;2023-03-01T05:54:20;21.40;;;13.50;;
52322;SDS011;38263;52.920;6.238;2023-03-01T05:56:46;23.02;;;13.75;;
52322;SDS011;38263;52.920;6.238;2023-03-01T05:59:12;22.65;;;12.70;;
52322;SDS011;38263;52.920;6.238;2023-03-01T06:01:40;21.30;;;13.80;;
52322;SDS011;38263;52.920;6.238;2023-03-01T06:04:06;19.83;;;12.65;;
52322;SDS011;38263;52.920;6.238;2023-03-01T06:06:35;19.45;;;12.55;;
52322;SDS011;38263;52.920;6.238;2023-03-01T06:09:05;22.00;;;13.20;;
52322;SDS011;38263;52.920;6.238;2023-03-01T06:11:33;19.10;;;11.90;;
52322;SDS011;38263;52.920;6.238;2023-03-01T06:13:59;17.70;;;12.02;;
52322;SDS011;38263;52.920;6.238;2023-03-01T06:16:25;17.95;;;11.82;;
52322;SDS011;38263;52.920;6.238;2023-03-01T06:18:51;18.75;;;12.45;;
52322;SDS011;38263;52.920;6.238;2023-03-01T06:21:17;16.48;;;11.38;;
52322;SDS011;38263;52.920;6.238;2023-03-01T06:23:43;19.75;;;12.60;;
52322;SDS011;38263;52.920;6.238;2023-03-01T06:26:09;19.20;;;12.57;;
52322;SDS011;38263;52.920;6.238;2023-03-01T06:28:35;15.80;;;11.45;;
52322;SDS011;38263;52.920;6.238;2023-03-01T06:31:01;19.38;;;12.95;;
52322;SDS011;38263;52.920;6.238;2023-03-01T06:33:27;20.33;;;12.57;;
52322;SDS011;38263;52.920;6.238;2023-03-01T06:35:56;20.35;;;12.00;;
52322;SDS011;38263;52.920;6.238;2023-03-01T06:38:23;18.92;;;11.88;;
52322;SDS011;38263;52.920;6.238;2023-03-01T06:40:55;21.05;;;12.98;;
52322;SDS011;38263;52.920;6.238;2023-03-01T06:43:21;19.17;;;12.48;;
52322;SDS011;38263;52.920;6.238;2023-03-01T06:45:48;22.92;;;15.70;;
52322;SDS011;38263;52.920;6.238;2023-03-01T06:48:14;20.15;;;13.07;;
52322;SDS011;38263;52.920;6.238;2023-03-01T06:50:40;19.88;;;12.73;;
52322;SDS011;38263;52.920;6.238;2023-03-01T06:53:06;18.58;;;12.55;;
52322;SDS011;38263;52.920;6.238;2023-03-01T06:55:32;24.52;;;14.80;;
52322;SDS011;38263;52.920;6.238;2023-03-01T06:57:59;27.38;;;16.38;;
52322;SDS011;38263;52.920;6.238;2023-03-01T07:00:25;22.60;;;14.38;;
52322;SDS011;38263;52.920;6.238;2023-03-01T07:02:51;20.35;;;13.52;;
52322;SDS011;38263;52.920;6.238;2023-03-01T07:05:17;20.38;;;13.48;;
52322;SDS011;38263;52.920;6.238;2023-03-01T07:07:43;21.60;;;14.50;;
52322;SDS011;38263;52.920;6.238;2023-03-01T07:10:10;24.00;;;15.30;;
52322;SDS011;38263;52.920;6.238;2023-03-01T07:12:36;19.95;;;13.60;;
52322;SDS011;38263;52.920;6.238;2023-03-01T07:15:02;21.63;;;14.40;;
52322;SDS011;38263;52.920;6.238;2023-03-01T07:17:28;20.88;;;13.05;;
52322;SDS011;38263;52.920;6.238;2023-03-01T07:19:54;20.77;;;14.05;;
52322;SDS011;38263;52.920;6.238;2023-03-01T07:22:20;22.95;;;14.57;;
52322;SDS011;38263;52.920;6.238;2023-03-01T07:24:46;21.08;;;13.77;;
52322;SDS011;38263;52.920;6.238;2023-03-01T07:27:12;23.85;;;15.50;;
52322;SDS011;38263;52.920;6.238;2023-03-01T07:29:38;19.92;;;13.77;;
52322;SDS011;38263;52.920;6.238;2023-03-01T07:32:05;21.05;;;14.25;;
52322;SDS011;38263;52.920;6.238;2023-03-01T07:34:32;22.15;;;14.27;;
52322;SDS011;38263;52.920;6.238;2023-03-01T07:36:58;21.70;;;14.38;;
52322;SDS011;38263;52.920;6.238;2023-03-01T07:39:24;23.83;;;15.05;;
52322;SDS011;38263;52.920;6.238;2023-03-01T07:41:50;24.67;;;16.52;;
52322;SDS011;38263;52.920;6.238;2023-03-01T07:44:16;24.52;;;15.75;;
52322;SDS011;38263;52.920;6.238;2023-03-01T07:46:43;24.13;;;15.98;;
52322;SDS011;38263;52.920;6.238;2023-03-01T07:49:09;22.85;;;13.85;;
52322;SDS011;38263;52.920;6.238;2023-03-01T07:51:35;29.70;;;16.83;;
52322;SDS011;38263;52.920;6.238;2023-03-01T07:54:01;26.48;;;16.05;;
52322;SDS011;38263;52.920;6.238;2023-03-01T07:56:27;25.38;;;16.02;;
52322;SDS011;38263;52.920;6.238;2023-03-01T07:58:53;27.20;;;17.75;;
52322;SDS011;38263;52.920;6.238;2023-03-01T08:01:20;24.40;;;15.65;;
52322;SDS011;38263;52.920;6.238;2023-03-01T08:03:46;24.75;;;15.75;;
52322;SDS011;38263;52.920;6.238;2023-03-01T08:06:13;24.92;;;15.73;;
52322;SDS011;38263;52.920;6.238;2023-03-01T08:08:40;22.67;;;14.32;;
52322;SDS011;38263;52.920;6.238;2023-03-01T08:11:06;21.35;;;14.10;;
52322;SDS011;38263;52.920;6.238;2023-03-01T08:13:33;21.80;;;15.00;;
52322;SDS011;38263;52.920;6.238;2023-03-01T08:16:09;20.63;;;13.52;;
52322;SDS011;38263;52.920;6.238;2023-03-01T08:18:36;17.83;;;13.15;;
52322;SDS011;38263;52.920;6.238;2023-03-01T08:21:03;18.98;;;13.85;;
52322;SDS011;38263;52.920;6.238;2023-03-01T08:23:30;20.55;;;14.20;;
52322;SDS011;38263;52.920;6.238;2023-03-01T08:26:03;19.33;;;14.77;;
52322;SDS011;38263;52.920;6.238;2023-03-01T08:28:29;18.17;;;13.38;;
52322;SDS011;38263;52.920;6.238;2023-03-01T08:30:55;18.40;;;14.05;;
52322;SDS011;38263;52.920;6.238;2023-03-01T08:33:21;16.95;;;13.30;;
52322;SDS011;38263;52.920;6.238;2023-03-01T08:35:47;18.25;;;14.15;;
52322;SDS011;38263;52.920;6.238;2023-03-01T08:38:12;18.25;;;13.98;;
52322;SDS011;38263;52.920;6.238;2023-03-01T08:40:38;22.00;;;14.30;;
52322;SDS011;38263;52.920;6.238;2023-03-01T08:43:04;21.67;;;15.25;;
52322;SDS011;38263;52.920;6.238;2023-03-01T08:45:30;22.23;;;16.23;;
52322;SDS011;38263;52.920;6.238;2023-03-01T08:47:56;20.65;;;15.20;;
52322;SDS011;38263;52.920;6.238;2023-03-01T08:50:23;19.45;;;14.48;;
52322;SDS011;38263;52.920;6.238;2023-03-01T08:52:49;18.15;;;13.88;;
52322;SDS011;38263;52.920;6.238;2023-03-01T08:55:16;19.95;;;15.27;;
52322;SDS011;38263;52.920;6.238;2023-03-01T08:57:42;18.73;;;14.48;;
52322;SDS011;38263;52.920;6.238;2023-03-01T09:00:09;21.50;;;15.50;;
52322;SDS011;38263;52.920;6.238;2023-03-01T09:02:36;20.80;;;14.57;;
52322;SDS011;38263;52.920;6.238;2023-03-01T09:05:02;18.08;;;13.68;;
52322;SDS011;38263;52.920;6.238;2023-03-01T09:07:28;20.95;;;15.02;;
52322;SDS011;38263;52.920;6.238;2023-03-01T09:09:54;20.00;;;14.27;;
52322;SDS011;38263;52.920;6.238;2023-03-01T09:12:20;17.05;;;13.65;;
52322;SDS011;38263;52.920;6.238;2023-03-01T09:14:46;23.45;;;15.23;;
52322;SDS011;38263;52.920;6.238;2023-03-01T09:17:12;20.13;;;14.95;;
52322;SDS011;38263;52.920;6.238;2023-03-01T09:19:38;19.85;;;14.52;;
52322;SDS011;38263;52.920;6.238;2023-03-01T09:22:04;20.40;;;15.32;;
52322;SDS011;38263;52.920;6.238;2023-03-01T09:24:30;22.55;;;16.08;;
52322;SDS011;38263;52.920;6.238;2023-03-01T09:26:56;19.73;;;14.25;;
52322;SDS011;38263;52.920;6.238;2023-03-01T09:29:22;19.33;;;15.40;;
52322;SDS011;38263;52.920;6.238;2023-03-01T09:31:48;19.52;;;14.77;;
52322;SDS011;38263;52.920;6.238;2023-03-01T09:34:14;20.77;;;15.60;;
52322;SDS011;38263;52.920;6.238;2023-03-01T09:36:44;21.10;;;14.77;;
52322;SDS011;38263;52.920;6.238;2023-03-01T09:39:10;19.60;;;14.48;;
52322;SDS011;38263;52.920;6.238;2023-03-01T09:44:10;22.77;;;15.63;;
52322;SDS011;38263;52.920;6.238;2023-03-01T09:46:37;22.57;;;15.33;;
52322;SDS011;38263;52.920;6.238;2023-03-01T09:49:19;27.23;;;15.65;;
52322;SDS011;38263;52.920;6.238;2023-03-01T09:52:01;19.85;;;14.85;;
52322;SDS011;38263;52.920;6.238;2023-03-01T09:54:37;22.00;;;15.50;;
52322;SDS011;38263;52.920;6.238;2023-03-01T09:57:19;24.08;;;15.55;;
52322;SDS011;38263;52.920;6.238;2023-03-01T10:00:09;20.45;;;15.30;;
52322;SDS011;38263;52.920;6.238;2023-03-01T10:02:45;20.50;;;14.82;;
52322;SDS011;38263;52.920;6.238;2023-03-01T10:05:39;21.10;;;15.98;;
52322;SDS011;38263;52.920;6.238;2023-03-01T10:11:21;21.33;;;14.57;;
52322;SDS011;38263;52.920;6.238;2023-03-01T10:16:43;16.40;;;12.93;;
52322;SDS011;38263;52.920;6.238;2023-03-01T10:19:17;20.70;;;13.38;;
52322;SDS011;38263;52.920;6.238;2023-03-01T10:21:48;21.48;;;12.30;;
52322;SDS011;38263;52.920;6.238;2023-03-01T10:24:17;18.67;;;12.57;;
52322;SDS011;38263;52.920;6.238;2023-03-01T10:27:00;16.85;;;12.57;;
52322;SDS011;38263;52.920;6.238;2023-03-01T10:29:43;16.25;;;12.13;;
52322;SDS011;38263;52.920;6.238;2023-03-01T10:32:13;15.00;;;12.60;;
52322;SDS011;38263;52.920;6.238;2023-03-01T10:34:39;15.02;;;11.63;;
52322;SDS011;38263;52.920;6.238;2023-03-01T10:37:10;18.13;;;12.15;;
52322;SDS011;38263;52.920;6.238;2023-03-01T10:39:36;16.63;;;11.80;;
52322;SDS011;38263;52.920;6.238;2023-03-01T10:42:19;14.70;;;11.10;;
52322;SDS011;38263;52.920;6.238;2023-03-01T10:44:51;12.38;;;10.48;;
52322;SDS011;38263;52.920;6.238;2023-03-01T10:47:24;14.20;;;10.55;;
52322;SDS011;38263;52.920;6.238;2023-03-01T10:52:18;11.30;;;10.00;;
52322;SDS011;38263;52.920;6.238;2023-03-01T10:54:58;14.80;;;10.05;;
52322;SDS011;38263;52.920;6.238;2023-03-01T10:57:31;14.07;;;11.18;;
52322;SDS011;38263;52.920;6.238;2023-03-01T11:03:30;13.55;;;10.82;;
52322;SDS011;38263;52.920;6.238;2023-03-01T11:05:49;14.95;;;11.18;;
52322;SDS011;38263;52.920;6.238;2023-03-01T11:08:45;15.88;;;11.80;;
52322;SDS011;38263;52.920;6.238;2023-03-01T11:11:17;14.43;;;10.77;;
52322;SDS011;38263;52.920;6.238;2023-03-01T11:14:07;19.17;;;11.93;;
52322;SDS011;38263;52.920;6.238;2023-03-01T11:16:45;16.85;;;11.52;;
52322;SDS011;38263;52.920;6.238;2023-03-01T11:19:15;18.08;;;11.18;;
52322;SDS011;38263;52.920;6.238;2023-03-01T11:24:27;15.75;;;12.93;;
52322;SDS011;38263;52.920;6.238;2023-03-01T11:27:35;14.98;;;10.82;;
52322;SDS011;38263;52.920;6.238;2023-03-01T11:30:04;18.85;;;11.45;;
52322;SDS011;38263;52.920;6.238;2023-03-01T11:32:42;18.55;;;12.30;;
52322;SDS011;38263;52.920;6.238;2023-03-01T11:35:18;15.82;;;12.35;;
52322;SDS011;38263;52.920;6.238;2023-03-01T11:40:32;16.98;;;11.15;;
52322;SDS011;38263;52.920;6.238;2023-03-01T11:46:19;18.50;;;12.48;;
52322;SDS011;38263;52.920;6.238;2023-03-01T11:50:56;19.55;;;12.40;;
52322;SDS011;38263;52.920;6.238;2023-03-01T11:56:18;19.33;;;12.70;;
52322;SDS011;38263;52.920;6.238;2023-03-01T11:58:56;19.48;;;12.13;;
52322;SDS011;38263;52.920;6.238;2023-03-01T12:07:11;17.83;;;12.20;;
52322;SDS011;38263;52.920;6.238;2023-03-01T12:09:52;18.08;;;12.75;;
52322;SDS011;38263;52.920;6.238;2023-03-01T12:15:37;14.90;;;10.60;;
52322;SDS011;38263;52.920;6.238;2023-03-01T12:18:13;17.50;;;11.98;;
52322;SDS011;38263;52.920;6.238;2023-03-01T12:31:18;16.20;;;11.68;;
52322;SDS011;38263;52.920;6.238;2023-03-01T12:36:46;19.33;;;12.98;;
52322;SDS011;38263;52.920;6.238;2023-03-01T12:39:23;16.13;;;12.00;;
52322;SDS011;38263;52.920;6.238;2023-03-01T12:54:35;16.63;;;11.38;;
52322;SDS011;38263;52.920;6.238;2023-03-01T12:57:15;16.48;;;11.40;;
52322;SDS011;38263;52.920;6.238;2023-03-01T13:02:40;18.45;;;12.15;;
52322;SDS011;38263;52.920;6.238;2023-03-01T13:17:50;19.83;;;12.52;;
52322;SDS011;38263;52.920;6.238;2023-03-01T13:20:18;14.68;;;10.75;;
52322;SDS011;38263;52.920;6.238;2023-03-01T13:22:45;18.45;;;12.55;;
52322;SDS011;38263;52.920;6.238;2023-03-01T13:25:14;20.88;;;12.32;;
52322;SDS011;38263;52.920;6.238;2023-03-01T13:27:40;15.75;;;11.68;;
52322;SDS011;38263;52.920;6.238;2023-03-01T13:30:37;18.77;;;12.57;;
52322;SDS011;38263;52.920;6.238;2023-03-01T13:32:52;21.70;;;12.25;;
52322;SDS011;38263;52.920;6.238;2023-03-01T13:35:42;16.55;;;11.45;;
52322;SDS011;38263;52.920;6.238;2023-03-01T13:43:26;15.48;;;11.27;;
52322;SDS011;38263;52.920;6.238;2023-03-01T13:45:53;18.48;;;12.30;;
52322;SDS011;38263;52.920;6.238;2023-03-01T13:48:29;19.08;;;12.40;;
52322;SDS011;38263;52.920;6.238;2023-03-01T13:51:00;18.08;;;12.88;;
52322;SDS011;38263;52.920;6.238;2023-03-01T13:53:27;19.20;;;12.55;;
52322;SDS011;38263;52.920;6.238;2023-03-01T13:55:58;19.08;;;12.20;;
52322;SDS011;38263;52.920;6.238;2023-03-01T13:58:27;20.67;;;11.30;;
52322;SDS011;38263;52.920;6.238;2023-03-01T14:00:56;15.20;;;11.80;;
52322;SDS011;38263;52.920;6.238;2023-03-01T14:03:22;17.52;;;12.73;;
52322;SDS011;38263;52.920;6.238;2023-03-01T14:08:24;16.27;;;10.20;;
52322;SDS011;38263;52.920;6.238;2023-03-01T14:16:05;19.95;;;12.40;;
52322;SDS011;38263;52.920;6.238;2023-03-01T14:21:35;19.38;;;12.75;;
52322;SDS011;38263;52.920;6.238;2023-03-01T14:24:01;18.10;;;12.80;;
52322;SDS011;38263;52.920;6.238;2023-03-01T14:26:28;21.95;;;12.70;;
52322;SDS011;38263;52.920;6.238;2023-03-01T14:28:55;18.58;;;12.93;;
52322;SDS011;38263;52.920;6.238;2023-03-01T14:31:31;19.48;;;13.60;;
52322;SDS011;38263;52.920;6.238;2023-03-01T14:33:58;19.85;;;13.25;;
52322;SDS011;38263;52.920;6.238;2023-03-01T14:36:29;18.95;;;12.57;;
52322;SDS011;38263;52.920;6.238;2023-03-01T14:38:56;20.60;;;13.35;;
52322;SDS011;38263;52.920;6.238;2023-03-01T14:41:30;21.35;;;13.43;;
52322;SDS011;38263;52.920;6.238;2023-03-01T14:44:07;19.95;;;13.93;;
52322;SDS011;38263;52.920;6.238;2023-03-01T14:46:38;18.33;;;13.10;;
52322;SDS011;38263;52.920;6.238;2023-03-01T14:49:13;18.55;;;12.70;;
52322;SDS011;38263;52.920;6.238;2023-03-01T14:51:41;18.38;;;13.70;;
52322;SDS011;38263;52.920;6.238;2023-03-01T14:54:18;18.13;;;12.45;;
52322;SDS011;38263;52.920;6.238;2023-03-01T14:56:45;16.52;;;12.05;;
52322;SDS011;38263;52.920;6.238;2023-03-01T14:59:12;16.23;;;11.30;;
52322;SDS011;38263;52.920;6.238;2023-03-01T15:01:39;17.17;;;12.25;;
52322;SDS011;38263;52.920;6.238;2023-03-01T15:04:06;20.88;;;12.00;;
52322;SDS011;38263;52.920;6.238;2023-03-01T15:06:32;17.60;;;11.52;;
52322;SDS011;38263;52.920;6.238;2023-03-01T15:08:58;18.48;;;12.43;;
52322;SDS011;38263;52.920;6.238;2023-03-01T15:11:31;17.60;;;12.70;;
52322;SDS011;38263;52.920;6.238;2023-03-01T15:13:58;18.77;;;11.95;;
52322;SDS011;38263;52.920;6.238;2023-03-01T15:16:31;16.55;;;11.43;;
52322;SDS011;38263;52.920;6.238;2023-03-01T15:18:58;14.25;;;10.90;;
52322;SDS011;38263;52.920;6.238;2023-03-01T15:21:26;16.15;;;11.77;;
52322;SDS011;38263;52.920;6.238;2023-03-01T15:23:57;14.30;;;11.35;;
52322;SDS011;38263;52.920;6.238;2023-03-01T15:28:52;15.80;;;10.93;;
52322;SDS011;38263;52.920;6.238;2023-03-01T15:31:23;14.48;;;10.82;;
52322;SDS011;38263;52.920;6.238;2023-03-01T15:33:49;16.13;;;10.98;;
52322;SDS011;38263;52.920;6.238;2023-03-01T15:39:00;16.52;;;11.02;;
52322;SDS011;38263;52.920;6.238;2023-03-01T15:41:31;13.93;;;10.60;;
52322;SDS011;38263;52.920;6.238;2023-03-01T15:43:58;12.40;;;8.80;;
52322;SDS011;38263;52.920;6.238;2023-03-01T15:46:26;17.33;;;11.15;;
52322;SDS011;38263;52.920;6.238;2023-03-01T15:48:55;13.95;;;10.75;;
52322;SDS011;38263;52.920;6.238;2023-03-01T15:53:58;13.43;;;9.70;;
52322;SDS011;38263;52.920;6.238;2023-03-01T15:56:24;12.90;;;10.30;;
52322;SDS011;38263;52.920;6.238;2023-03-01T15:58:50;12.98;;;9.75;;
52322;SDS011;38263;52.920;6.238;2023-03-01T16:01:16;13.25;;;9.75;;
52322;SDS011;38263;52.920;6.238;2023-03-01T16:03:42;13.68;;;10.10;;
52322;SDS011;38263;52.920;6.238;2023-03-01T16:06:09;15.57;;;9.73;;
52322;SDS011;38263;52.920;6.238;2023-03-01T16:08:36;15.65;;;10.60;;
52322;SDS011;38263;52.920;6.238;2023-03-01T16:11:04;13.85;;;11.38;;
52322;SDS011;38263;52.920;6.238;2023-03-01T16:13:31;14.18;;;10.68;;
52322;SDS011;38263;52.920;6.238;2023-03-01T16:15:57;14.32;;;11.00;;
52322;SDS011;38263;52.920;6.238;2023-03-01T16:18:23;15.55;;;10.73;;
52322;SDS011;38263;52.920;6.238;2023-03-01T16:20:49;16.98;;;11.32;;
52322;SDS011;38263;52.920;6.238;2023-03-01T16:23:15;18.73;;;12.35;;